createdAt,value
2018-01-23T00:01:49.139Z,0.64
2018-01-23T00:04:17.077Z,0.60
2018-01-23T00:06:45.038Z,0.57
2018-01-23T00:09:12.997Z,0.53
2018-01-23T00:11:40.906Z,0.65
2018-01-23T00:14:08.831Z,0.60
2018-01-23T00:16:36.931Z,0.59
2018-01-23T00:19:04.985Z,0.48
2018-01-23T00:21:32.957Z,0.51
2018-01-23T00:24:00.994Z,0.43
2018-01-23T00:26:28.926Z,0.55
2018-01-23T00:28:56.905Z,0.59
2018-01-23T00:31:24.892Z,0.58
2018-01-23T00:33:52.827Z,0.69
2018-01-23T00:36:20.845Z,0.64
2018-01-23T00:38:48.753Z,0.76
2018-01-23T00:41:16.720Z,0.75
2018-01-23T00:43:44.635Z,0.78
2018-01-23T00:46:12.605Z,0.79
2018-01-23T00:48:40.555Z,0.89
2018-01-23T00:51:08.480Z,0.90
2018-01-23T00:53:36.437Z,0.86
2018-01-23T00:56:04.390Z,0.73
2018-01-23T00:58:32.976Z,0.73
2018-01-23T01:01:00.932Z,0.87
2018-01-23T01:03:29.040Z,0.80
2018-01-23T01:05:57.021Z,0.73
2018-01-23T01:08:25.006Z,0.84
2018-01-23T01:10:52.952Z,0.89
2018-01-23T01:13:20.890Z,0.92
2018-01-23T01:15:48.848Z,0.89
2018-01-23T01:18:16.785Z,0.82
2018-01-23T01:20:44.744Z,0.78
2018-01-23T01:23:12.677Z,0.82
2018-01-23T01:25:40.746Z,0.86
2018-01-23T01:28:08.818Z,0.92
2018-01-23T01:30:36.791Z,0.82
2018-01-23T01:33:04.741Z,0.87
2018-01-23T01:35:32.729Z,0.82
2018-01-23T01:38:00.719Z,0.80
2018-01-23T01:40:29.163Z,0.76
2018-01-23T01:42:57.124Z,0.83
2018-01-23T01:45:25.103Z,0.79
2018-01-23T01:47:53.038Z,0.79
2018-01-23T01:50:21.005Z,0.84
2018-01-23T01:52:49.416Z,0.87
2018-01-23T01:55:17.385Z,0.95
2018-01-23T01:57:45.319Z,0.94
2018-01-23T02:00:13.243Z,0.84
2018-01-23T02:02:41.236Z,0.83
2018-01-23T02:05:09.157Z,0.86
2018-01-23T02:07:37.166Z,0.98
2018-01-23T02:10:05.093Z,0.95
2018-01-23T02:12:33.033Z,0.87
2018-01-23T02:15:00.980Z,0.90
2018-01-23T02:17:28.913Z,0.87
2018-01-23T02:19:56.919Z,0.90
2018-01-23T02:22:24.958Z,0.97
2018-01-23T02:24:52.916Z,1.04
2018-01-23T02:27:20.849Z,0.90
2018-01-23T02:29:48.773Z,0.83
2018-01-23T02:32:16.752Z,0.72
2018-01-23T02:34:44.704Z,0.69
2018-01-23T02:37:12.653Z,0.68
2018-01-23T02:39:40.569Z,0.60
2018-01-23T02:42:08.574Z,0.68
2018-01-23T02:44:36.528Z,0.60
2018-01-23T02:47:04.456Z,0.58
2018-01-23T02:49:32.489Z,0.51
2018-01-23T02:52:00.438Z,0.54
2018-01-23T02:54:28.350Z,0.50
2018-01-23T02:56:56.277Z,0.38
2018-01-23T02:59:24.313Z,0.52
2018-01-23T03:01:52.265Z,0.44
2018-01-23T03:04:20.213Z,0.51
2018-01-23T03:06:48.129Z,0.46
2018-01-23T03:09:16.065Z,0.44
2018-01-23T03:11:44.222Z,0.35
2018-01-23T03:14:12.155Z,0.45
2018-01-23T03:16:40.181Z,0.44
2018-01-23T03:19:10.109Z,0.55
2018-01-23T03:21:38.033Z,0.51
2018-01-23T03:24:05.980Z,0.55
2018-01-23T03:26:33.999Z,0.46
2018-01-23T03:29:02.009Z,0.57
2018-01-23T03:31:31.138Z,0.52
2018-01-23T03:33:59.100Z,0.66
2018-01-23T03:36:27.035Z,0.68
2018-01-23T03:38:56.592Z,0.68
2018-01-23T03:41:24.770Z,0.79
2018-01-23T03:43:52.753Z,0.77
2018-01-23T03:46:22.096Z,0.74
2018-01-23T03:48:51.832Z,0.81
2018-01-23T03:51:19.795Z,0.84
2018-01-23T03:53:47.721Z,0.86
2018-01-23T03:56:15.663Z,0.86
2018-01-23T03:58:45.011Z,0.86
2018-01-23T04:01:13.070Z,0.96
2018-01-23T04:03:42.809Z,0.94
2018-01-23T04:06:10.761Z,0.92
2018-01-23T04:08:38.834Z,0.91
2018-01-23T04:11:06.770Z,0.87
2018-01-23T04:13:34.701Z,0.93
2018-01-23T04:16:03.717Z,0.96
2018-01-23T04:18:31.702Z,0.99
2018-01-23T04:21:02.771Z,1.02
2018-01-23T04:23:30.804Z,1.06
2018-01-23T04:26:00.236Z,1.08
2018-01-23T04:28:28.330Z,1.09
2018-01-23T04:30:56.271Z,1.02
2018-01-23T04:33:26.585Z,1.05
2018-01-23T04:35:56.298Z,0.99
2018-01-23T04:38:24.294Z,1.04
2018-01-23T04:40:52.237Z,1.01
2018-01-23T04:43:20.230Z,1.13
2018-01-23T04:45:48.154Z,1.35
2018-01-23T04:48:16.294Z,2.08
2018-01-23T04:50:44.241Z,1.69
2018-01-23T04:53:13.064Z,1.47
2018-01-23T04:55:41.021Z,1.55
2018-01-23T04:58:08.966Z,1.40
2018-01-23T05:00:37.015Z,1.35
2018-01-23T05:03:05.474Z,1.17
2018-01-23T05:05:33.466Z,1.11
2018-01-23T05:08:01.610Z,1.13
2018-01-23T05:10:30.142Z,1.07
2018-01-23T05:12:58.106Z,1.23
2018-01-23T05:15:26.057Z,1.19
2018-01-23T05:17:53.993Z,1.13
2018-01-23T05:20:22.020Z,1.09
2018-01-23T05:22:49.957Z,0.94
2018-01-23T05:25:17.906Z,1.06
2018-01-23T05:27:45.829Z,0.99
2018-01-23T05:30:13.767Z,1.07
2018-01-23T05:32:41.717Z,1.11
2018-01-23T05:35:09.637Z,1.05
2018-01-23T05:37:37.675Z,1.13
2018-01-23T05:40:06.008Z,1.03
2018-01-23T05:42:33.960Z,0.96
2018-01-23T05:45:01.902Z,0.98
2018-01-23T05:47:29.891Z,1.06
2018-01-23T05:49:57.898Z,1.06
2018-01-23T05:52:25.923Z,1.09
2018-01-23T05:54:53.842Z,1.03
2018-01-23T05:57:21.762Z,0.94
2018-01-23T05:59:50.303Z,1.01
2018-01-23T06:02:18.257Z,0.98
2018-01-23T06:04:46.286Z,1.16
2018-01-23T06:07:14.222Z,1.08
2018-01-23T06:09:42.165Z,1.02
2018-01-23T06:12:10.158Z,0.87
2018-01-23T06:14:38.126Z,0.77
2018-01-23T06:17:06.052Z,0.86
2018-01-23T06:19:33.981Z,0.94
2018-01-23T06:22:01.947Z,0.94
2018-01-23T06:24:29.936Z,0.93
2018-01-23T06:26:57.870Z,0.93
2018-01-23T06:29:25.817Z,0.93
2018-01-23T06:31:53.765Z,0.97
2018-01-23T06:34:21.714Z,1.06
2018-01-23T06:36:49.683Z,1.16
2018-01-23T06:39:17.619Z,1.35
2018-01-23T06:41:45.602Z,1.37
2018-01-23T06:44:13.674Z,1.39
2018-01-23T06:46:41.703Z,1.28
2018-01-23T06:49:09.697Z,1.29
2018-01-23T06:51:37.667Z,1.14
2018-01-23T06:54:05.608Z,1.26
2018-01-23T06:56:33.569Z,1.10
2018-01-23T06:59:01.558Z,1.10
2018-01-23T07:01:29.549Z,1.10
2018-01-23T07:03:57.484Z,1.20
2018-01-23T07:06:25.469Z,1.16
2018-01-23T07:08:53.371Z,1.22
2018-01-23T07:11:22.312Z,1.09
2018-01-23T07:13:50.680Z,1.20
2018-01-23T07:16:18.682Z,1.10
2018-01-23T07:18:46.625Z,1.21
2018-01-23T07:21:14.770Z,1.26
2018-01-23T07:23:42.761Z,1.18
2018-01-23T07:26:10.789Z,1.21
2018-01-23T07:28:38.758Z,1.29
2018-01-23T07:31:06.726Z,1.25
2018-01-23T07:33:34.653Z,1.32
2018-01-23T07:36:02.588Z,1.11
2018-01-23T07:38:30.540Z,1.21
2018-01-23T07:40:58.490Z,1.52
2018-01-23T07:43:26.709Z,1.41
2018-01-23T07:45:54.653Z,1.34
2018-01-23T07:48:22.619Z,1.25
2018-01-23T07:50:50.580Z,1.22
2018-01-23T07:53:18.602Z,1.21
2018-01-23T07:55:46.481Z,1.13
2018-01-23T07:58:14.428Z,1.10
2018-01-23T08:00:42.362Z,0.94
2018-01-23T08:03:10.310Z,0.97
2018-01-23T08:05:38.233Z,1.20
2018-01-23T08:08:06.170Z,1.05
2018-01-23T08:10:34.117Z,1.21
2018-01-23T08:13:02.062Z,1.01
2018-01-23T08:15:30.008Z,0.97
2018-01-23T08:17:58.433Z,1.08
2018-01-23T08:20:26.356Z,1.18
2018-01-23T08:22:54.301Z,1.18
2018-01-23T08:25:22.233Z,1.66
2018-01-23T08:27:50.162Z,1.35
2018-01-23T08:30:18.095Z,1.29
2018-01-23T08:32:46.046Z,1.13
2018-01-23T08:35:13.971Z,1.18
2018-01-23T08:37:41.924Z,1.29
2018-01-23T08:40:09.858Z,1.12
2018-01-23T08:42:37.791Z,1.28
2018-01-23T08:45:05.742Z,1.50
2018-01-23T08:47:33.722Z,1.37
2018-01-23T08:50:02.444Z,1.34
2018-01-23T08:52:30.372Z,1.32
2018-01-23T08:54:58.330Z,1.22
2018-01-23T08:57:26.366Z,1.18
2018-01-23T08:59:54.327Z,1.32
2018-01-23T09:02:22.297Z,1.35
2018-01-23T09:04:50.252Z,1.55
2018-01-23T09:07:18.163Z,1.24
2018-01-23T09:09:46.139Z,1.09
2018-01-23T09:12:14.074Z,1.13
2018-01-23T09:14:42.022Z,1.42
2018-01-23T09:17:09.954Z,1.38
2018-01-23T09:19:37.921Z,1.20
2018-01-23T09:22:05.869Z,1.27
2018-01-23T09:24:33.876Z,1.23
2018-01-23T09:27:01.793Z,1.27
2018-01-23T09:29:29.795Z,1.36
2018-01-23T09:31:57.718Z,1.43
2018-01-23T09:34:26.673Z,1.40
2018-01-23T09:36:54.674Z,1.42
2018-01-23T09:39:22.621Z,1.39
2018-01-23T09:41:50.563Z,1.38
2018-01-23T09:44:18.534Z,1.45
2018-01-23T09:46:46.506Z,1.21
2018-01-23T09:49:14.425Z,1.35
2018-01-23T09:51:42.447Z,1.36
2018-01-23T09:54:10.403Z,1.31
2018-01-23T09:56:38.329Z,1.39
2018-01-23T09:59:06.278Z,1.29
2018-01-23T10:01:34.217Z,1.38
2018-01-23T10:04:02.189Z,1.46
2018-01-23T10:06:30.126Z,1.35
2018-01-23T10:08:58.069Z,1.37
2018-01-23T10:11:26.128Z,1.38
2018-01-23T10:13:54.074Z,1.41
2018-01-23T10:16:22.086Z,1.42
2018-01-23T10:18:50.127Z,1.46
2018-01-23T10:21:18.205Z,1.48
2018-01-23T10:23:46.179Z,1.63
2018-01-23T10:26:14.146Z,1.63
2018-01-23T10:28:42.145Z,1.58
2018-01-23T10:31:10.104Z,1.66
2018-01-23T10:33:38.053Z,1.68
2018-01-23T10:36:06.005Z,1.60
2018-01-23T10:38:33.933Z,1.51
2018-01-23T10:41:01.878Z,1.52
2018-01-23T10:43:29.794Z,1.45
2018-01-23T10:45:57.741Z,1.45
2018-01-23T10:48:25.729Z,1.43
2018-01-23T10:50:53.675Z,1.42
2018-01-23T10:53:21.611Z,1.48
2018-01-23T10:55:49.592Z,1.49
2018-01-23T10:58:17.563Z,1.52
2018-01-23T11:00:51.114Z,1.51
2018-01-23T11:03:19.087Z,1.54
2018-01-23T11:05:47.280Z,1.58
2018-01-23T11:08:15.201Z,1.57
2018-01-23T11:10:43.133Z,1.76
2018-01-23T11:13:11.090Z,1.61
2018-01-23T11:15:39.025Z,1.71
2018-01-23T11:18:07.062Z,1.82
2018-01-23T11:20:35.464Z,1.87
2018-01-23T11:23:03.474Z,1.83
2018-01-23T11:25:31.424Z,1.82
2018-01-23T11:27:59.358Z,1.76
2018-01-23T11:30:27.309Z,1.84
2018-01-23T11:32:55.220Z,2.03
2018-01-23T11:35:23.217Z,1.86
2018-01-23T11:37:51.853Z,1.93
2018-01-23T11:40:19.906Z,1.84
2018-01-23T11:42:47.882Z,1.79
2018-01-23T11:45:15.901Z,1.72
2018-01-23T11:47:43.861Z,1.67
2018-01-23T11:50:11.837Z,1.72
2018-01-23T11:52:39.750Z,1.66
2018-01-23T11:55:07.670Z,1.78
2018-01-23T11:57:35.648Z,1.82
2018-01-23T12:00:03.577Z,1.86
2018-01-23T12:02:31.515Z,1.99
2018-01-23T12:04:59.428Z,2.03
2018-01-23T12:07:27.486Z,1.98
2018-01-23T12:09:55.511Z,2.06
2018-01-23T12:12:23.469Z,1.93
2018-01-23T12:14:51.483Z,2.01
2018-01-23T12:17:19.633Z,2.14
2018-01-23T12:19:47.588Z,2.11
2018-01-23T12:22:15.523Z,2.26
2018-01-23T12:24:43.474Z,2.08
2018-01-23T12:27:11.460Z,2.08
2018-01-23T12:29:39.398Z,2.06
2018-01-23T12:32:07.328Z,1.95
2018-01-23T12:34:35.279Z,1.95
2018-01-23T12:37:03.246Z,1.95
2018-01-23T12:39:31.433Z,2.00
2018-01-23T12:41:59.393Z,2.07
2018-01-23T12:44:27.309Z,1.85
2018-01-23T12:46:55.265Z,2.10
2018-01-23T12:49:23.187Z,1.97
2018-01-23T12:51:51.141Z,1.96
2018-01-23T12:54:19.134Z,2.05
2018-01-23T12:56:47.113Z,2.10
2018-01-23T12:59:15.069Z,2.15
2018-01-23T13:01:43.009Z,2.06
2018-01-23T13:04:10.996Z,2.09
2018-01-23T13:06:38.934Z,2.31
2018-01-23T13:09:06.930Z,2.31
2018-01-23T13:11:34.909Z,2.30
2018-01-23T13:14:03.062Z,2.31
2018-01-23T13:16:31.022Z,2.19
2018-01-23T13:18:59.036Z,2.24
2018-01-23T13:21:27.000Z,2.31
2018-01-23T13:23:55.155Z,2.38
2018-01-23T13:26:23.218Z,2.30
2018-01-23T13:28:51.163Z,2.50
2018-01-23T13:31:19.137Z,2.49
2018-01-23T13:33:47.133Z,2.46
2018-01-23T13:36:15.081Z,2.54
2018-01-23T13:38:43.135Z,2.49
2018-01-23T13:41:11.107Z,2.67
2018-01-23T13:43:39.090Z,2.89
2018-01-23T13:46:07.021Z,2.93
2018-01-23T13:48:34.964Z,3.15
2018-01-23T13:51:02.916Z,3.31
2018-01-23T13:53:30.866Z,3.29
2018-01-23T13:55:58.841Z,2.97
2018-01-23T13:58:26.848Z,2.84
2018-01-23T14:00:54.776Z,2.75
2018-01-23T14:03:22.856Z,2.69
2018-01-23T14:05:51.023Z,2.74
2018-01-23T14:08:19.009Z,2.69
2018-01-23T14:10:47.205Z,2.70
2018-01-23T14:13:15.173Z,2.73
2018-01-23T14:15:43.166Z,2.62
2018-01-23T14:18:11.111Z,2.71
2018-01-23T14:20:39.035Z,2.68
2018-01-23T14:23:07.280Z,2.62
2018-01-23T14:25:35.225Z,2.71
2018-01-23T14:28:03.370Z,2.80
2018-01-23T14:30:31.299Z,2.89
2018-01-23T14:32:59.374Z,2.86
2018-01-23T14:35:27.326Z,2.89
2018-01-23T14:37:55.251Z,2.71
2018-01-23T14:40:23.204Z,2.71
2018-01-23T14:42:51.138Z,2.74
2018-01-23T14:45:19.085Z,2.83
2018-01-23T14:47:47.153Z,2.80
2018-01-23T14:50:15.123Z,2.82
2018-01-23T14:52:43.065Z,2.70
2018-01-23T14:55:11.067Z,2.66
2018-01-23T14:57:39.027Z,2.66
2018-01-23T15:00:06.955Z,2.70
2018-01-23T15:02:34.929Z,2.83
2018-01-23T15:05:02.870Z,2.70
2018-01-23T15:07:30.786Z,2.67
2018-01-23T15:09:58.781Z,2.79
2018-01-23T15:12:26.682Z,2.76
2018-01-23T15:14:54.649Z,2.67
2018-01-23T15:17:22.597Z,2.71
2018-01-23T15:19:50.528Z,2.76
2018-01-23T15:22:18.562Z,2.75
2018-01-23T15:24:46.533Z,2.73
2018-01-23T15:27:14.699Z,2.68
2018-01-23T15:29:42.675Z,2.80
2018-01-23T15:32:10.705Z,2.82
2018-01-23T15:34:38.729Z,2.75
2018-01-23T15:37:06.701Z,2.90
2018-01-23T15:39:34.655Z,2.86
2018-01-23T15:42:02.698Z,2.87
2018-01-23T15:44:30.697Z,2.93
2018-01-23T15:46:58.685Z,3.41
2018-01-23T15:49:26.618Z,3.52
2018-01-23T15:51:54.568Z,3.56
2018-01-23T15:54:22.486Z,3.72
2018-01-23T15:56:50.433Z,3.44
2018-01-23T15:59:18.370Z,3.18
2018-01-23T16:01:46.312Z,3.26
2018-01-23T16:04:14.273Z,3.26
2018-01-23T16:06:42.230Z,3.29
2018-01-23T16:09:10.189Z,3.29
2018-01-23T16:11:38.107Z,3.29
2018-01-23T16:14:06.076Z,3.38
2018-01-23T16:16:34.047Z,3.26
2018-01-23T16:19:01.975Z,3.27
2018-01-23T16:21:29.913Z,3.33
2018-01-23T16:23:57.887Z,3.17
2018-01-23T16:26:25.856Z,3.29
2018-01-23T16:28:53.797Z,3.16
2018-01-23T16:31:21.738Z,3.29
2018-01-23T16:33:49.679Z,3.29
2018-01-23T16:36:19.720Z,3.29
2018-01-23T16:38:47.893Z,3.30
2018-01-23T16:41:15.893Z,3.33
2018-01-23T16:43:43.912Z,3.38
2018-01-23T16:46:11.843Z,3.39
2018-01-23T16:48:39.804Z,3.41
2018-01-23T16:51:08.808Z,3.38
2018-01-23T16:53:36.759Z,3.53
2018-01-23T16:56:04.675Z,3.46
2018-01-23T16:58:32.636Z,3.56
2018-01-23T17:01:00.639Z,3.48
2018-01-23T17:03:28.603Z,3.63
2018-01-23T17:05:56.586Z,3.58
2018-01-23T17:08:24.619Z,3.65
2018-01-23T17:10:52.658Z,3.63
2018-01-23T17:13:25.147Z,3.69
2018-01-23T17:15:55.187Z,3.77
2018-01-23T17:18:23.133Z,3.84
2018-01-23T17:20:51.557Z,3.73
2018-01-23T17:23:19.587Z,3.71
2018-01-23T17:25:47.638Z,3.82
2018-01-23T17:28:15.648Z,3.85
2018-01-23T17:30:43.694Z,3.84
2018-01-23T17:33:11.817Z,3.91
2018-01-23T17:35:39.835Z,3.87
2018-01-23T17:38:07.909Z,3.89
2018-01-23T17:40:35.860Z,3.97
2018-01-23T17:43:04.705Z,4.00
2018-01-23T17:45:32.637Z,4.07
2018-01-23T17:48:00.622Z,4.07
2018-01-23T17:50:28.670Z,4.10
2018-01-23T17:52:56.667Z,4.07
2018-01-23T17:55:24.607Z,4.06
2018-01-23T17:57:52.534Z,4.05
2018-01-23T18:00:20.813Z,4.04
2018-01-23T18:02:48.765Z,4.07
2018-01-23T18:05:16.733Z,4.14
2018-01-23T18:07:45.598Z,4.12
2018-01-23T18:10:13.566Z,4.09
2018-01-23T18:12:41.510Z,4.05
2018-01-23T18:15:10.355Z,4.08
2018-01-23T18:17:38.423Z,4.10
2018-01-23T18:20:06.317Z,4.22
2018-01-23T18:22:34.342Z,4.18
2018-01-23T18:25:02.254Z,4.20
2018-01-23T18:27:30.225Z,4.13
2018-01-23T18:29:58.285Z,4.22
2018-01-23T18:32:26.246Z,4.22
2018-01-23T18:34:54.213Z,4.34
2018-01-23T18:37:22.145Z,4.39
2018-01-23T18:39:50.262Z,4.32
2018-01-23T18:42:18.342Z,4.23
2018-01-23T18:44:46.264Z,4.34
2018-01-23T18:47:14.231Z,4.45
2018-01-23T18:49:42.274Z,4.50
2018-01-23T18:52:10.508Z,4.37
2018-01-23T18:54:38.424Z,4.32
2018-01-23T18:57:06.424Z,4.32
2018-01-23T18:59:34.351Z,4.42
2018-01-23T19:02:02.404Z,4.45
2018-01-23T19:04:30.943Z,4.48
2018-01-23T19:06:58.882Z,4.51
2018-01-23T19:09:26.901Z,4.59
2018-01-23T19:11:54.989Z,4.76
2018-01-23T19:14:22.930Z,4.84
2018-01-23T19:16:50.920Z,4.72
2018-01-23T19:19:18.840Z,4.74
2018-01-23T19:21:46.857Z,4.58
2018-01-23T19:24:14.864Z,4.65
2018-01-23T19:26:42.778Z,4.84
2018-01-23T19:29:10.732Z,4.80
2018-01-23T19:31:38.676Z,4.87
2018-01-23T19:34:06.601Z,4.93
2018-01-23T19:36:34.661Z,5.07
2018-01-23T19:39:02.627Z,5.08
2018-01-23T19:41:30.591Z,5.11
2018-01-23T19:43:58.515Z,5.15
2018-01-23T19:46:27.409Z,5.15
2018-01-23T19:48:57.474Z,5.25
2018-01-23T19:51:25.578Z,5.27
2018-01-23T19:53:53.883Z,5.25
2018-01-23T19:56:21.958Z,5.27
2018-01-23T19:58:50.244Z,5.36
2018-01-23T20:01:18.177Z,5.31
2018-01-23T20:03:46.188Z,5.34
2018-01-23T20:06:14.163Z,5.39
2018-01-23T20:08:42.113Z,5.42
2018-01-23T20:11:10.074Z,5.50
2018-01-23T20:13:37.999Z,5.48
2018-01-23T20:16:06.068Z,5.48
2018-01-23T20:18:33.996Z,5.56
2018-01-23T20:21:01.976Z,5.62
2018-01-23T20:23:29.948Z,5.57
2018-01-23T20:25:57.865Z,5.46
2018-01-23T20:28:25.865Z,5.51
2018-01-23T20:30:53.881Z,5.49
2018-01-23T20:33:21.895Z,5.51
2018-01-23T20:35:49.897Z,5.48
2018-01-23T20:38:17.909Z,5.59
2018-01-23T20:40:45.915Z,5.54
2018-01-23T20:43:13.857Z,5.56
2018-01-23T20:45:42.938Z,5.61
2018-01-23T20:48:11.010Z,5.55
2018-01-23T20:50:38.978Z,5.42
2018-01-23T20:53:07.102Z,5.48
2018-01-23T20:55:35.037Z,5.46
2018-01-23T20:58:03.007Z,5.43
2018-01-23T21:00:31.748Z,5.34
2018-01-23T21:02:59.742Z,5.38
2018-01-23T21:05:28.532Z,5.45
2018-01-23T21:07:56.478Z,5.45
2018-01-23T21:10:24.504Z,5.32
2018-01-23T21:12:52.545Z,5.34
2018-01-23T21:15:20.450Z,5.45
2018-01-23T21:17:48.421Z,5.35
2018-01-23T21:20:16.352Z,5.47
2018-01-23T21:22:44.418Z,5.43
2018-01-23T21:25:12.598Z,5.39
2018-01-23T21:27:40.542Z,5.45
2018-01-23T21:30:08.571Z,5.33
2018-01-23T21:32:36.571Z,5.33
2018-01-23T21:35:04.549Z,5.33
2018-01-23T21:37:32.466Z,5.38
2018-01-23T21:40:00.397Z,5.36
2018-01-23T21:42:28.359Z,5.42
2018-01-23T21:44:56.325Z,5.49
2018-01-23T21:47:24.413Z,5.46
2018-01-23T21:49:52.353Z,5.48
2018-01-23T21:52:20.277Z,5.47
2018-01-23T21:54:49.167Z,5.52
2018-01-23T21:57:17.117Z,5.59
2018-01-23T21:59:45.082Z,5.67
2018-01-23T22:02:13.145Z,5.67
2018-01-23T22:04:41.529Z,5.63
2018-01-23T22:07:09.532Z,5.70
2018-01-23T22:09:37.477Z,5.61
2018-01-23T22:12:05.409Z,5.57
2018-01-23T22:14:33.463Z,5.57
2018-01-23T22:17:01.385Z,5.57
2018-01-23T22:19:29.340Z,5.53
2018-01-23T22:21:57.497Z,5.54
2018-01-23T22:24:25.436Z,5.50
2018-01-23T22:26:53.531Z,5.47
2018-01-23T22:29:21.461Z,5.50
2018-01-23T22:31:49.409Z,5.48
2018-01-23T22:34:17.381Z,5.50
2018-01-23T22:36:45.310Z,5.50
2018-01-23T22:39:13.242Z,5.47
2018-01-23T22:41:41.196Z,5.53
2018-01-23T22:44:09.208Z,5.45
2018-01-23T22:46:37.171Z,5.52
2018-01-23T22:49:05.097Z,5.55
2018-01-23T22:51:33.015Z,5.51
2018-01-23T22:54:01.060Z,5.51
2018-01-23T22:56:28.985Z,5.57
2018-01-23T22:58:56.935Z,5.54
2018-01-23T23:01:25.014Z,5.64
2018-01-23T23:03:52.968Z,5.66
2018-01-23T23:06:20.903Z,5.62
2018-01-23T23:08:48.903Z,5.71
2018-01-23T23:11:16.796Z,5.79
2018-01-23T23:13:44.890Z,5.78
2018-01-23T23:16:12.848Z,5.82
2018-01-23T23:18:40.966Z,5.93
2018-01-23T23:21:08.899Z,5.90
2018-01-23T23:23:36.890Z,5.94
2018-01-23T23:26:04.828Z,5.89
2018-01-23T23:28:32.846Z,5.95
2018-01-23T23:31:00.969Z,5.86
2018-01-23T23:33:29.068Z,5.97
2018-01-23T23:35:57.171Z,5.86
2018-01-23T23:38:25.106Z,5.97
2018-01-23T23:40:53.051Z,5.98
2018-01-23T23:43:20.978Z,5.94
2018-01-23T23:45:48.906Z,5.93
2018-01-23T23:48:16.913Z,6.00
2018-01-23T23:50:44.831Z,5.99
2018-01-23T23:53:12.773Z,6.09
2018-01-23T23:55:40.722Z,6.12
2018-01-23T23:58:08.738Z,6.09
